Posidon Hellas — SYJY — position and weather

sailwx.info

Track history (hours):
 
Tides and Currents Weather Stations Pressure Air Temp Water Temp Dewpoint Dewpoint Depression Visibility Wind Speed Wind Dir Waves Ship Positions

Posidon Hellas

Last reported at 2017-Dec-18 11:00 UTC. Time now 2017-Dec-18 11:11 UTC.
Position N 37°47' E 023°26'.

Length 86 m; draft 3.5 m.

Type: Passenger vessel. MMSI: 237008100.

Date/timePositionNaut miles runAvg speedWind from/ knotsBaromVisibWave heightAir tempDewpointWater temp
2017-Dec-18 11:00N 37°47' E 023°26'815.2
2017-Dec-18 10:30N 37°52' E 023°33'713.3
2017-Dec-18 10:00N 37°57' E 023°38'0 0.0
2017-Dec-18 09:30N 37°57' E 023°38'0 0.0
2017-Dec-18 09:00N 37°57' E 023°38'0 0.0
2017-Dec-18 08:30N 37°57' E 023°38'4 7.1
2017-Dec-18 08:00N 37°54' E 023°35'714.9
2017-Dec-18 07:30N 37°49' E 023°29'5 9.6
2017-Dec-18 07:00N 37°45' E 023°26'1 2.9
2017-Dec-18 06:30N 37°46' E 023°25'714.9
2017-Dec-18 06:00N 37°51' E 023°32'713.8
2017-Dec-18 05:30N 37°56' E 023°37'1 2.0
2017-Dec-18 05:00N 37°57' E 023°38'0 0.0
2017-Dec-18 04:30N 37°57' E 023°38'0 0.0
2017-Dec-18 04:00N 37°57' E 023°39'0 0.0
2017-Dec-18 03:30N 37°57' E 023°39'0 0.0
2017-Dec-18 03:00N 37°57' E 023°39'0 0.0
2017-Dec-18 02:30N 37°57' E 023°38'0 0.0
2017-Dec-18 02:00N 37°57' E 023°38'0 0.0
2017-Dec-18 01:30N 37°57' E 023°38'0 0.0
2017-Dec-18 01:00N 37°57' E 023°38'0 0.0
2017-Dec-18 00:30N 37°57' E 023°38'0 0.0
2017-Dec-18 00:00N 37°57' E 023°39'0 0.0
2017-Dec-17 23:30N 37°57' E 023°39'0 0.0
2017-Dec-17 23:00N 37°57' E 023°39'0 0.0
2017-Dec-17 22:30N 37°57' E 023°39'0 0.0
2017-Dec-17 22:00N 37°57' E 023°38'0 0.0
2017-Dec-17 21:30N 37°57' E 023°39'0 0.0
2017-Dec-17 21:00N 37°57' E 023°39'0 0.0
2017-Dec-17 20:30N 37°57' E 023°39'0 0.0
2017-Dec-17 20:00N 37°57' E 023°39'0 0.0
2017-Dec-17 19:30N 37°57' E 023°38'0 0.0
2017-Dec-17 19:00N 37°57' E 023°38'4 7.4
2017-Dec-17 18:30N 37°54' E 023°35'714.7
2017-Dec-17 18:00N 37°49' E 023°29'5 9.5
2017-Dec-17 17:30N 37°45' E 023°26'2 5.0
2017-Dec-17 17:00N 37°47' E 023°27'714.6
2017-Dec-17 16:30N 37°52' E 023°33'612.3
2017-Dec-17 16:00N 37°57' E 023°38'3 6.3
2017-Dec-17 15:30N 37°55' E 023°36'714.6
2017-Dec-17 15:00N 37°49' E 023°30'510.8
2017-Dec-17 14:30N 37°45' E 023°25'2 4.9
2017-Dec-17 14:00N 37°47' E 023°26'714.8
2017-Dec-17 13:30N 37°52' E 023°33'612.5
2017-Dec-17 13:00N 37°57' E 023°38'2 3.8
2017-Dec-17 12:30N 37°55' E 023°37'714.6
2017-Dec-17 12:00N 37°50' E 023°31'713.5
2017-Dec-17 11:30N 37°45' E 023°25'3 6.0
2017-Dec-17 11:00N 37°43' E 023°22'2 4.8
2017-Dec-17 10:30N 37°44' E 023°25'2 4.8
2017-Dec-17 10:00N 37°46' E 023°25'714.2
2017-Dec-17 09:30N 37°50' E 023°32'714.1
2017-Dec-17 09:00N 37°56' E 023°37'0 0.6
2017-Dec-17 08:30N 37°56' E 023°37'714.1
2017-Dec-17 08:00N 37°50' E 023°32'714.8
2017-Dec-17 07:30N 37°46' E 023°25'1 1.4
2017-Dec-17 07:00N 37°46' E 023°25'714.3
2017-Dec-17 06:30N 37°50' E 023°33'713.9
2017-Dec-17 06:00N 37°56' E 023°37'1 2.6
2017-Dec-17 05:30N 37°57' E 023°39'0 0.0
2017-Dec-17 05:00N 37°57' E 023°39'0 0.0
2017-Dec-17 04:30N 37°57' E 023°39'0 0.0
2017-Dec-17 04:00N 37°57' E 023°39'0 0.0
2017-Dec-17 03:30N 37°57' E 023°39'0 0.0
2017-Dec-17 03:00N 37°57' E 023°39'0 0.0
2017-Dec-17 02:30N 37°57' E 023°39'0 0.0
2017-Dec-17 02:00N 37°57' E 023°39'0 0.0
2017-Dec-17 01:30N 37°57' E 023°39'0 0.0
2017-Dec-17 01:00N 37°57' E 023°39'0 0.0
2017-Dec-17 00:30N 37°57' E 023°39'0 0.0
2017-Dec-17 00:00N 37°57' E 023°39'0 0.0
2017-Dec-16 23:30N 37°57' E 023°39'0 0.0
2017-Dec-16 23:00N 37°57' E 023°39'0 0.0
2017-Dec-16 22:30N 37°57' E 023°39'0 0.0
2017-Dec-16 22:00N 37°57' E 023°39'0 0.0
2017-Dec-16 21:30N 37°57' E 023°39'0 0.0
2017-Dec-16 21:01N 37°57' E 023°39'0 0.0
2017-Dec-16 20:30N 37°57' E 023°39'0 0.0
2017-Dec-16 20:00N 37°57' E 023°39'0 0.0
2017-Dec-16 19:30N 37°57' E 023°39'0 0.0
2017-Dec-16 19:00N 37°57' E 023°39'0 0.0
2017-Dec-16 18:30N 37°57' E 023°39'0 0.0
2017-Dec-16 18:00N 37°57' E 023°39'0 0.0
2017-Dec-16 17:30N 37°57' E 023°39'0 0.0
2017-Dec-16 17:00N 37°57' E 023°39'0 0.1
2017-Dec-16 16:30N 37°57' E 023°38'510.8
2017-Dec-16 16:00N 37°51' E 023°36'612.1
2017-Dec-16 15:30N 37°48' E 023°31'5 9.8
2017-Dec-16 15:00N 37°45' E 023°25'2 3.3
2017-Dec-16 14:31N 37°46' E 023°25'713.9
2017-Dec-16 14:00N 37°47' E 023°34'510.6
2017-Dec-16 13:30N 37°53' E 023°36'5 9.4
2017-Dec-16 13:00N 37°57' E 023°38'0 0.0
2017-Dec-16 12:30N 37°57' E 023°38'0 0.0
2017-Dec-16 12:00N 37°57' E 023°38'0 0.0
2017-Dec-16 11:30N 37°57' E 023°38'0 0.0
2017-Dec-16 11:00N 37°57' E 023°38'0 0.0
2017-Dec-16 10:30N 37°57' E 023°38'0 0.0
2017-Dec-16 10:00N 37°57' E 023°38'0 0.0
2017-Dec-16 09:30N 37°57' E 023°38'0 0.0
2017-Dec-16 09:00N 37°57' E 023°38'1 2.0
2017-Dec-16 08:30N 37°56' E 023°37'714.2
2017-Dec-16 08:00N 37°50' E 023°32'815.2
2017-Dec-16 07:30N 37°46' E 023°25'1 1.1
2017-Dec-16 07:00N 37°45' E 023°25'714.1
2017-Dec-16 06:30N 37°49' E 023°32'713.7
2017-Dec-16 06:00N 37°55' E 023°36'2 4.8
2017-Dec-16 05:30N 37°57' E 023°38'0 0.0
2017-Dec-16 05:00N 37°57' E 023°38'0 0.0
2017-Dec-16 04:30N 37°57' E 023°38'0 0.0
2017-Dec-16 04:00N 37°57' E 023°38'0 0.0
2017-Dec-16 03:30N 37°57' E 023°38'0 0.0
2017-Dec-16 03:00N 37°57' E 023°38'0 0.0
2017-Dec-16 02:30N 37°57' E 023°38'0 0.0
2017-Dec-16 02:00N 37°57' E 023°38'0 0.0
2017-Dec-16 01:30N 37°57' E 023°38'0 0.0
2017-Dec-16 01:00N 37°57' E 023°38'0 0.0
2017-Dec-16 00:30N 37°57' E 023°38'0 0.0
2017-Dec-16 00:00N 37°57' E 023°38'0 0.0
2017-Dec-15 23:30N 37°57' E 023°38'0 0.0
2017-Dec-15 23:00N 37°57' E 023°38'0 0.0
2017-Dec-15 22:30N 37°57' E 023°38'0 0.0
2017-Dec-15 22:00N 37°57' E 023°38'0 0.0
2017-Dec-15 21:30N 37°57' E 023°38'0 0.0
2017-Dec-15 21:00N 37°57' E 023°38'0 0.0
2017-Dec-15 20:30N 37°57' E 023°38'0 0.0
2017-Dec-15 20:00N 37°57' E 023°38'0 0.0
2017-Dec-15 19:30N 37°57' E 023°38'0 0.0
2017-Dec-15 19:00N 37°57' E 023°38'0 0.2
2017-Dec-15 18:30N 37°57' E 023°38'713.6
2017-Dec-15 18:00N 37°51' E 023°33'815.3
2017-Dec-15 17:30N 37°47' E 023°25'2 3.6
2017-Dec-15 17:00N 37°45' E 023°25'713.9
2017-Dec-15 16:30N 37°50' E 023°31'815.1
2017-Dec-15 16:00N 37°56' E 023°37'2 3.1
2017-Dec-15 15:30N 37°57' E 023°38'713.2
2017-Dec-15 15:00N 37°52' E 023°33'815.2
2017-Dec-15 14:30N 37°47' E 023°26'2 4.1
2017-Dec-15 14:00N 37°45' E 023°26'611.0
2017-Dec-15 13:30N 37°49' E 023°30'715.0
2017-Dec-15 13:00N 37°55' E 023°36'3 5.7
2017-Dec-15 12:30N 37°57' E 023°38'4 8.2
2017-Dec-15 12:00N 37°54' E 023°35'714.9
2017-Dec-15 11:30N 37°48' E 023°28'4 8.6
2017-Dec-15 11:00N 37°45' E 023°26'3 7.0
2017-Dec-15 10:30N 37°42' E 023°22'3 6.9
2017-Dec-15 10:00N 37°45' E 023°25'4 7.6
2017-Dec-15 09:30N 37°48' E 023°28'815.1
2017-Dec-15 09:00N 37°53' E 023°35'5 9.2
2017-Dec-15 08:30N 37°57' E 023°38'4 8.6
2017-Dec-15 08:00N 37°54' E 023°35'815.1
2017-Dec-15 07:30N 37°48' E 023°28'4 7.9
2017-Dec-15 07:00N 37°45' E 023°26'2 4.9
2017-Dec-15 06:30N 37°47' E 023°26'714.5
2017-Dec-15 06:00N 37°52' E 023°33'612.2
2017-Dec-15 05:30N 37°56' E 023°38'0 0.8
2017-Dec-15 05:00N 37°57' E 023°38'0 0.0
2017-Dec-15 04:30N 37°57' E 023°38'0 0.0
2017-Dec-15 04:00N 37°57' E 023°38'0 0.0
2017-Dec-15 02:30N 37°57' E 023°38'0 0.0
2017-Dec-15 01:00N 37°57' E 023°38'0 0.0
2017-Dec-15 00:30N 37°57' E 023°38'0 0.0
2017-Dec-14 18:31N 37°57' E 023°38'0 0.0
2017-Dec-14 18:00N 37°57' E 023°38'0 0.0
2017-Dec-14 17:30N 37°57' E 023°38'0 0.0
2017-Dec-14 17:00N 37°57' E 023°38'0 0.0
2017-Dec-14 16:30N 37°57' E 023°38'0 0.0
2017-Dec-14 16:00N 37°57' E 023°38'0 0.0
2017-Dec-14 15:00N 37°57' E 023°38'0 0.0
2017-Dec-14 14:30N 37°57' E 023°38'0 0.0
2017-Dec-14 14:00N 37°57' E 023°38'0 0.0
2017-Dec-14 13:30N 37°57' E 023°38'0 0.0
2017-Dec-14 13:00N 37°57' E 023°38'0 0.0
2017-Dec-14 12:30N 37°57' E 023°38'0 0.0
2017-Dec-14 12:00N 37°57' E 023°38'0 0.0
2017-Dec-14 11:30N 37°57' E 023°38'0 0.0
2017-Dec-14 11:00N 37°57' E 023°38'0 0.0
2017-Dec-14 10:30N 37°57' E 023°38'0 0.0
2017-Dec-14 10:00N 37°57' E 023°38'0 0.0
2017-Dec-14 09:30N 37°57' E 023°38'0 0.0
2017-Dec-14 09:00N 37°57' E 023°38'0 0.0
2017-Dec-14 08:30N 37°57' E 023°38'0 0.0
2017-Dec-14 08:00N 37°57' E 023°38'0 0.0
2017-Dec-14 07:30N 37°57' E 023°38'0 0.0
2017-Dec-14 07:00N 37°57' E 023°38'0 0.0
2017-Dec-14 06:30N 37°57' E 023°38'0 0.0
2017-Dec-13 16:31N 37°57' E 023°38'111.2
2017-Dec-13 16:29N 37°56' E 023°38'714.6
2017-Dec-13 16:00N 37°51' E 023°32'715.1
2017-Dec-13 15:30N 37°46' E 023°25'2 3.2
2017-Dec-13 15:00N 37°45' E 023°26'3 5.4
2017-Dec-13 14:30N 37°47' E 023°27'714.9
2017-Dec-13 14:00N 37°52' E 023°34'611.6
2017-Dec-13 13:30N 37°57' E 023°38'0 0.3
2017-Dec-13 13:00N 37°57' E 023°38'713.6
2017-Dec-13 12:30N 37°51' E 023°33'815.1
2017-Dec-13 12:00N 37°47' E 023°26'2 3.6
2017-Dec-13 11:30N 37°45' E 023°26'3 6.9
2017-Dec-13 11:00N 37°48' E 023°28'714.8
2017-Dec-13 10:30N 37°53' E 023°34'510.0
2017-Dec-13 10:00N 37°57' E 023°38'0 0.0
2017-Dec-13 09:30N 37°57' E 023°38'0 0.0
2017-Dec-13 09:00N 37°57' E 023°38'0 0.0
2017-Dec-13 08:30N 37°57' E 023°38'4 7.4
2017-Dec-13 08:01N 37°54' E 023°35'815.0
2017-Dec-13 07:30N 37°49' E 023°29'5 9.1
2017-Dec-13 07:00N 37°45' E 023°26'2 4.1
2017-Dec-13 06:30N 37°47' E 023°26'714.8
2017-Dec-13 06:01N 37°51' E 023°33'713.3
2017-Dec-13 05:30N 37°56' E 023°38'0 1.0
2017-Dec-13 05:00N 37°57' E 023°38'0 0.0
2017-Dec-13 04:30N 37°57' E 023°38'0 0.0
2017-Dec-13 04:00N 37°57' E 023°38'0 0.0
2017-Dec-13 03:30N 37°57' E 023°38'0 0.0
2017-Dec-13 03:00N 37°57' E 023°38'0 0.0
2017-Dec-13 02:30N 37°57' E 023°38'0 0.0
2017-Dec-13 02:00N 37°57' E 023°38'0 0.0
2017-Dec-13 01:30N 37°57' E 023°38'0 0.0
2017-Dec-13 01:00N 37°57' E 023°38'0 0.0
2017-Dec-13 00:30N 37°57' E 023°38'0 0.0
2017-Dec-13 00:00N 37°57' E 023°38'0 0.0
2017-Dec-12 23:30N 37°57' E 023°38'0 0.0
2017-Dec-12 23:00N 37°57' E 023°38'0 0.0
2017-Dec-12 22:30N 37°57' E 023°38'0 0.0
2017-Dec-12 22:00N 37°57' E 023°38'0 0.0
2017-Dec-12 21:30N 37°57' E 023°38'0 0.0
2017-Dec-12 21:00N 37°57' E 023°38'0 0.0
2017-Dec-12 20:30N 37°57' E 023°38'0 0.3
2017-Dec-12 20:00N 37°57' E 023°38'2 3.8
2017-Dec-12 19:30N 37°56' E 023°36'714.5
2017-Dec-12 19:00N 37°50' E 023°31'714.1
2017-Dec-12 18:30N 37°45' E 023°25'2 3.6
2017-Dec-12 18:00N 37°43' E 023°25'2 4.4
2017-Dec-12 17:30N 37°42' E 023°22'0 0.0
2017-Dec-12 17:00N 37°42' E 023°22'0 0.0
2017-Dec-12 16:30N 37°42' E 023°22'0 0.0
2017-Dec-12 16:00N 37°42' E 023°22'2 4.2
2017-Dec-12 15:30N 37°43' E 023°25'3 6.0
2017-Dec-12 15:00N 37°46' E 023°25'714.8
2017-Dec-12 14:30N 37°51' E 023°32'713.7
2017-Dec-12 14:00N 37°57' E 023°36'1 1.1
2017-Dec-12 13:30N 37°57' E 023°36'2 3.3
2017-Dec-12 13:00N 37°57' E 023°38'4 8.8
2017-Dec-12 12:30N 37°53' E 023°35'714.9
2017-Dec-12 12:00N 37°48' E 023°28'4 8.0
2017-Dec-12 11:30N 37°45' E 023°26'4 7.4
2017-Dec-12 11:00N 37°48' E 023°28'815.0
2017-Dec-12 10:30N 37°53' E 023°35'5 9.5
2017-Dec-12 10:00N 37°57' E 023°38'0 0.0
2017-Dec-12 09:30N 37°57' E 023°38'0 0.0
2017-Dec-12 09:00N 37°57' E 023°38'0 0.2
2017-Dec-12 08:30N 37°57' E 023°38'612.3
2017-Dec-12 08:00N 37°52' E 023°33'714.9
2017-Dec-12 07:30N 37°47' E 023°26'2 4.8
2017-Dec-12 07:00N 37°45' E 023°26'2 3.3
2017-Dec-12 06:30N 37°46' E 023°25'714.8
2017-Dec-12 06:00N 37°51' E 023°32'713.3
2017-Dec-12 05:30N 37°56' E 023°37'1 2.4
2017-Dec-12 05:00N 37°57' E 023°38'0 0.0
2017-Dec-12 04:30N 37°57' E 023°38'0 0.0
2017-Dec-12 04:00N 37°57' E 023°38'0 0.0
2017-Dec-12 03:30N 37°57' E 023°38'0 0.0
2017-Dec-12 03:00N 37°57' E 023°38'0 0.0
2017-Dec-12 02:30N 37°57' E 023°38'0 0.0
2017-Dec-12 02:00N 37°57' E 023°38'0 0.0
2017-Dec-12 01:30N 37°57' E 023°38'0 0.0
2017-Dec-12 01:00N 37°57' E 023°38'0 0.0
2017-Dec-12 00:30N 37°57' E 023°38'0 0.0
2017-Dec-12 00:00N 37°57' E 023°38'0 0.0
2017-Dec-11 23:30N 37°57' E 023°38'0 0.0
2017-Dec-11 23:00N 37°57' E 023°38'0 0.0
2017-Dec-11 22:30N 37°57' E 023°38'0 0.0
2017-Dec-11 22:00N 37°57' E 023°38'0 0.0
2017-Dec-11 21:30N 37°57' E 023°38'0 0.0
2017-Dec-11 21:00N 37°57' E 023°38'0 0.0
2017-Dec-11 20:30N 37°57' E 023°38'0 0.0
2017-Dec-11 20:00N 37°57' E 023°38'0 0.0
2017-Dec-11 19:30N 37°57' E 023°38'0 0.0
2017-Dec-11 19:00N 37°57' E 023°38'0 0.0
2017-Dec-11 18:30N 37°57' E 023°38'0 0.0
2017-Dec-11 18:00N 37°57' E 023°38'0 0.0
2017-Dec-11 17:30N 37°57' E 023°38'0 0.0
2017-Dec-11 17:00N 37°57' E 023°38'0 0.0
2017-Dec-11 16:30N 37°57' E 023°38'0 0.0
2017-Dec-11 16:00N 37°57' E 023°38'0 0.0
2017-Dec-11 15:30N 37°57' E 023°38'0 0.0
2017-Dec-11 15:00N 37°57' E 023°38'0 0.0
2017-Dec-11 14:30N 37°57' E 023°38'0 0.0
2017-Dec-11 14:00N 37°57' E 023°38'0 0.0
2017-Dec-11 13:30N 37°57' E 023°38'0 0.0
2017-Dec-11 13:00N 37°57' E 023°38'0 0.0
2017-Dec-11 12:30N 37°57' E 023°38'0 0.0
2017-Dec-11 12:00N 37°57' E 023°38'0 0.0
2017-Dec-11 11:30N 37°57' E 023°38'0 0.0
2017-Dec-11 11:00N 37°57' E 023°38'0 0.0
2017-Dec-11 10:30N 37°57' E 023°38'0 0.0
2017-Dec-11 10:00N 37°57' E 023°38'0 0.0
2017-Dec-11 09:30N 37°57' E 023°38'0 0.0
2017-Dec-11 09:00N 37°57' E 023°38'0 0.0
2017-Dec-11 08:30N 37°57' E 023°38'0 0.0
2017-Dec-11 08:00N 37°57' E 023°38'0 0.0
2017-Dec-11 07:30N 37°57' E 023°38'0 0.0
2017-Dec-11 07:00N 37°57' E 023°38'0 0.0
2017-Dec-11 06:30N 37°57' E 023°38'0 0.0
2017-Dec-11 06:00N 37°57' E 023°38'0 0.0
2017-Dec-11 05:30N 37°57' E 023°38'0 0.0
2017-Dec-11 05:00N 37°57' E 023°38'0 0.0
2017-Dec-11 04:30N 37°57' E 023°38'0 0.0
2017-Dec-11 04:00N 37°57' E 023°38'0 0.0
2017-Dec-11 03:30N 37°57' E 023°38'0 0.0
2017-Dec-11 03:00N 37°57' E 023°38'0 0.0
2017-Dec-11 02:30N 37°57' E 023°38'0 0.0
2017-Dec-11 02:00N 37°57' E 023°38'0 0.0
2017-Dec-11 01:30N 37°57' E 023°38'0 0.0
2017-Dec-11 01:00N 37°57' E 023°38'0 0.0
2017-Dec-11 00:30N 37°57' E 023°38'0 0.0
2017-Dec-11 00:00N 37°57' E 023°38'0 0.0
2017-Dec-10 23:30N 37°57' E 023°38'0 0.0
2017-Dec-10 23:00N 37°57' E 023°38'0 0.0
2017-Dec-10 22:30N 37°57' E 023°38'0 0.0
2017-Dec-10 22:00N 37°57' E 023°38'0 0.0
2017-Dec-10 21:30N 37°57' E 023°38'0 0.0
2017-Dec-10 21:00N 37°57' E 023°38'0 0.0
2017-Dec-10 20:30N 37°57' E 023°38'0 0.0
2017-Dec-10 20:00N 37°57' E 023°38'0 0.0
2017-Dec-10 19:30N 37°57' E 023°38'0 0.0
2017-Dec-10 19:00N 37°57' E 023°38'0 0.0
2017-Dec-10 18:30N 37°57' E 023°38'0 0.0
2017-Dec-10 18:00N 37°57' E 023°38'0 0.0
2017-Dec-10 17:30N 37°57' E 023°38'0 0.0
2017-Dec-10 17:00N 37°57' E 023°38'0 0.0
2017-Dec-10 16:30N 37°57' E 023°38'0 0.0
2017-Dec-10 16:00N 37°57' E 023°38'0 0.0
2017-Dec-10 15:30N 37°57' E 023°38'0 0.0
2017-Dec-10 15:00N 37°57' E 023°38'0 0.0
2017-Dec-10 14:30N 37°57' E 023°38'0 0.0
2017-Dec-10 14:00N 37°57' E 023°38'0 0.0
2017-Dec-10 13:30N 37°57' E 023°38'0 0.0
2017-Dec-10 13:00N 37°57' E 023°38'0 0.0
2017-Dec-10 12:30N 37°57' E 023°38'0 0.0
2017-Dec-10 12:00N 37°57' E 023°38'0 0.0
2017-Dec-10 11:30N 37°57' E 023°38'0 0.0
2017-Dec-10 11:00N 37°57' E 023°38'0 0.0
2017-Dec-10 10:30N 37°57' E 023°38'0 0.0
2017-Dec-10 10:00N 37°57' E 023°38'0 0.0
2017-Dec-10 09:30N 37°57' E 023°38'0 0.0
2017-Dec-10 09:00N 37°57' E 023°38'0 0.0
2017-Dec-10 08:30N 37°57' E 023°38'0 0.0
2017-Dec-10 08:00N 37°57' E 023°38'0 0.0
2017-Dec-10 07:30N 37°57' E 023°38'0 0.0
2017-Dec-10 07:00N 37°57' E 023°38'0 0.0
2017-Dec-10 06:30N 37°57' E 023°38'0 0.0
2017-Dec-10 06:00N 37°57' E 023°38'0 0.0
2017-Dec-10 05:30N 37°57' E 023°38'0 0.0
2017-Dec-10 05:00N 37°57' E 023°38'0 0.0
2017-Dec-10 04:30N 37°57' E 023°38'0 0.0
2017-Dec-10 04:00N 37°57' E 023°38'0 0.0
2017-Dec-10 03:30N 37°57' E 023°38'0 0.0
2017-Dec-10 03:00N 37°57' E 023°38'0 0.0
2017-Dec-10 02:30N 37°57' E 023°38'0 0.0
2017-Dec-10 02:00N 37°57' E 023°38'0 0.0
2017-Dec-10 01:30N 37°57' E 023°38'0 0.0
2017-Dec-10 01:00N 37°57' E 023°38'0 0.0
2017-Dec-10 00:30N 37°57' E 023°38'0 0.0
2017-Dec-10 00:00N 37°57' E 023°38'0 0.0
2017-Dec-09 23:30N 37°57' E 023°38'0 0.0
2017-Dec-09 23:00N 37°57' E 023°38'0 0.0
2017-Dec-09 22:30N 37°57' E 023°38'0 0.0
2017-Dec-09 22:00N 37°57' E 023°38'0 0.0
2017-Dec-09 21:30N 37°57' E 023°38'0 0.0
2017-Dec-09 21:00N 37°57' E 023°38'0 0.0
2017-Dec-09 20:30N 37°57' E 023°38'0 0.0
2017-Dec-09 20:00N 37°57' E 023°38'0 0.0
2017-Dec-09 19:30N 37°57' E 023°38'0 0.0
2017-Dec-09 19:00N 37°57' E 023°38'0 0.0
2017-Dec-09 18:30N 37°57' E 023°38'0 0.0
2017-Dec-09 18:00N 37°57' E 023°38'0 0.0
2017-Dec-09 17:30N 37°57' E 023°38'0 0.0
2017-Dec-09 17:00N 37°57' E 023°38'0 0.0
2017-Dec-09 16:30N 37°57' E 023°38'0 0.0
2017-Dec-09 16:00N 37°57' E 023°38'0 0.0
2017-Dec-09 15:30N 37°57' E 023°38'0 0.0
2017-Dec-09 15:00N 37°57' E 023°38'0 0.0
2017-Dec-09 14:30N 37°57' E 023°38'0 0.0
2017-Dec-09 14:00N 37°57' E 023°38'0 0.0
2017-Dec-09 13:30N 37°57' E 023°38'0 0.0
2017-Dec-09 13:00N 37°57' E 023°38'0 0.0
2017-Dec-09 12:30N 37°57' E 023°38'0 0.0
2017-Dec-09 12:00N 37°57' E 023°38'0 0.0
2017-Dec-09 11:30N 37°57' E 023°38'0 0.0
2017-Dec-09 11:00N 37°57' E 023°38'0 0.0
2017-Dec-09 10:30N 37°57' E 023°38'0 0.0
2017-Dec-09 10:00N 37°57' E 023°38'0 0.0
2017-Dec-09 09:30N 37°57' E 023°38'0 0.0
2017-Dec-09 09:00N 37°57' E 023°38'0 0.0
2017-Dec-09 08:30N 37°57' E 023°38'0 0.0
2017-Dec-09 08:00N 37°57' E 023°38'0 0.0
2017-Dec-09 07:30N 37°57' E 023°38'0 0.0
2017-Dec-09 07:00N 37°57' E 023°38'0 0.0
2017-Dec-09 06:30N 37°57' E 023°38'0 0.0
2017-Dec-09 06:00N 37°57' E 023°38'0 0.0
2017-Dec-09 05:30N 37°57' E 023°38'0 0.0
2017-Dec-09 05:00N 37°57' E 023°38'0 0.0
2017-Dec-09 04:30N 37°57' E 023°38'0 0.0
2017-Dec-09 04:00N 37°57' E 023°38'0 0.0
2017-Dec-09 03:30N 37°57' E 023°38'0 0.0
2017-Dec-09 03:00N 37°57' E 023°38'0 0.0
2017-Dec-09 02:30N 37°57' E 023°38'0 0.0
2017-Dec-09 02:00N 37°57' E 023°38'0 0.0
2017-Dec-09 01:30N 37°57' E 023°38'0 0.0
2017-Dec-09 01:00N 37°57' E 023°38'0 0.0
2017-Dec-09 00:30N 37°57' E 023°38'0 0.0
2017-Dec-09 00:00N 37°57' E 023°38'0 0.0
2017-Dec-08 23:30N 37°57' E 023°38'0 0.0
2017-Dec-08 23:00N 37°57' E 023°38'0 0.0
2017-Dec-08 22:30N 37°57' E 023°38'0 0.0
2017-Dec-08 22:00N 37°57' E 023°38'0 0.0
2017-Dec-08 21:30N 37°57' E 023°38'0 0.0
2017-Dec-08 21:00N 37°57' E 023°38'0 0.0
2017-Dec-08 20:30N 37°57' E 023°38'0 0.0
2017-Dec-08 20:00N 37°57' E 023°38'0 0.0
2017-Dec-08 19:30N 37°57' E 023°38'0 0.0
2017-Dec-08 19:00N 37°57' E 023°38'0 0.0
2017-Dec-08 18:30N 37°57' E 023°38'0 0.0
2017-Dec-08 18:00N 37°57' E 023°38'0 0.0
2017-Dec-08 17:30N 37°57' E 023°38'0 0.0
2017-Dec-08 17:00N 37°57' E 023°38'0 0.0
2017-Dec-08 16:30N 37°57' E 023°38'0 0.0
2017-Dec-08 16:00N 37°57' E 023°38'0 0.0
2017-Dec-08 15:30N 37°57' E 023°38'0 0.0
2017-Dec-08 15:00N 37°57' E 023°38'0 0.0
2017-Dec-08 14:30N 37°57' E 023°38'0 0.0
2017-Dec-08 14:00N 37°57' E 023°38'0 0.0
2017-Dec-08 13:30N 37°57' E 023°38'0 0.0
2017-Dec-08 13:00N 37°57' E 023°38'0 0.0
2017-Dec-08 12:30N 37°57' E 023°38'0 0.0
2017-Dec-08 12:00N 37°57' E 023°38'0 0.0
2017-Dec-08 11:30N 37°57' E 023°38'0 0.0
2017-Dec-08 11:00N 37°57' E 023°38'  
Track history (hours):
 
Tides and Currents Weather Stations Pressure Air Temp Water Temp Dewpoint Dewpoint Depression Visibility Wind Speed Wind Dir Waves Ship Positions

Posidon Hellas

Last reported at 2017-Dec-18 11:00 UTC. Time now 2017-Dec-18 11:11 UTC.
Position N 37°47' E 023°26'.

Length 86 m; draft 3.5 m.

Type: Passenger vessel. MMSI: 237008100.

Date/timePositionNaut miles runAvg speedWind from/ knotsBaromVisibWave heightAir tempDewpointWater temp
2017-Dec-18 11:00N 37°47' E 023°26'815.2
2017-Dec-18 10:30N 37°52' E 023°33'713.3
2017-Dec-18 10:00N 37°57' E 023°38'0 0.0
2017-Dec-18 09:30N 37°57' E 023°38'0 0.0
2017-Dec-18 09:00N 37°57' E 023°38'0 0.0
2017-Dec-18 08:30N 37°57' E 023°38'4 7.1
2017-Dec-18 08:00N 37°54' E 023°35'714.9
2017-Dec-18 07:30N 37°49' E 023°29'5 9.6
2017-Dec-18 07:00N 37°45' E 023°26'1 2.9
2017-Dec-18 06:30N 37°46' E 023°25'714.9
2017-Dec-18 06:00N 37°51' E 023°32'713.8
2017-Dec-18 05:30N 37°56' E 023°37'1 2.0
2017-Dec-18 05:00N 37°57' E 023°38'0 0.0
2017-Dec-18 04:30N 37°57' E 023°38'0 0.0
2017-Dec-18 04:00N 37°57' E 023°39'0 0.0
2017-Dec-18 03:30N 37°57' E 023°39'0 0.0
2017-Dec-18 03:00N 37°57' E 023°39'0 0.0
2017-Dec-18 02:30N 37°57' E 023°38'0 0.0
2017-Dec-18 02:00N 37°57' E 023°38'0 0.0
2017-Dec-18 01:30N 37°57' E 023°38'0 0.0
2017-Dec-18 01:00N 37°57' E 023°38'0 0.0
2017-Dec-18 00:30N 37°57' E 023°38'0 0.0
2017-Dec-18 00:00N 37°57' E 023°39'0 0.0
2017-Dec-17 23:30N 37°57' E 023°39'0 0.0
2017-Dec-17 23:00N 37°57' E 023°39'0 0.0
2017-Dec-17 22:30N 37°57' E 023°39'0 0.0
2017-Dec-17 22:00N 37°57' E 023°38'0 0.0
2017-Dec-17 21:30N 37°57' E 023°39'0 0.0
2017-Dec-17 21:00N 37°57' E 023°39'0 0.0
2017-Dec-17 20:30N 37°57' E 023°39'0 0.0
2017-Dec-17 20:00N 37°57' E 023°39'0 0.0
2017-Dec-17 19:30N 37°57' E 023°38'0 0.0
2017-Dec-17 19:00N 37°57' E 023°38'4 7.4
2017-Dec-17 18:30N 37°54' E 023°35'714.7
2017-Dec-17 18:00N 37°49' E 023°29'5 9.5
2017-Dec-17 17:30N 37°45' E 023°26'2 5.0
2017-Dec-17 17:00N 37°47' E 023°27'714.6
2017-Dec-17 16:30N 37°52' E 023°33'612.3
2017-Dec-17 16:00N 37°57' E 023°38'3 6.3
2017-Dec-17 15:30N 37°55' E 023°36'714.6
2017-Dec-17 15:00N 37°49' E 023°30'510.8
2017-Dec-17 14:30N 37°45' E 023°25'2 4.9
2017-Dec-17 14:00N 37°47' E 023°26'714.8
2017-Dec-17 13:30N 37°52' E 023°33'612.5
2017-Dec-17 13:00N 37°57' E 023°38'2 3.8
2017-Dec-17 12:30N 37°55' E 023°37'714.6
2017-Dec-17 12:00N 37°50' E 023°31'713.5
2017-Dec-17 11:30N 37°45' E 023°25'3 6.0
2017-Dec-17 11:00N 37°43' E 023°22'2 4.8
2017-Dec-17 10:30N 37°44' E 023°25'2 4.8
2017-Dec-17 10:00N 37°46' E 023°25'714.2
2017-Dec-17 09:30N 37°50' E 023°32'714.1
2017-Dec-17 09:00N 37°56' E 023°37'0 0.6
2017-Dec-17 08:30N 37°56' E 023°37'714.1
2017-Dec-17 08:00N 37°50' E 023°32'714.8
2017-Dec-17 07:30N 37°46' E 023°25'1 1.4
2017-Dec-17 07:00N 37°46' E 023°25'714.3
2017-Dec-17 06:30N 37°50' E 023°33'713.9
2017-Dec-17 06:00N 37°56' E 023°37'1 2.6
2017-Dec-17 05:30N 37°57' E 023°39'0 0.0
2017-Dec-17 05:00N 37°57' E 023°39'0 0.0
2017-Dec-17 04:30N 37°57' E 023°39'0 0.0
2017-Dec-17 04:00N 37°57' E 023°39'0 0.0
2017-Dec-17 03:30N 37°57' E 023°39'0 0.0
2017-Dec-17 03:00N 37°57' E 023°39'0 0.0
2017-Dec-17 02:30N 37°57' E 023°39'0 0.0
2017-Dec-17 02:00N 37°57' E 023°39'0 0.0
2017-Dec-17 01:30N 37°57' E 023°39'0 0.0
2017-Dec-17 01:00N 37°57' E 023°39'0 0.0
2017-Dec-17 00:30N 37°57' E 023°39'0 0.0
2017-Dec-17 00:00N 37°57' E 023°39'0 0.0
2017-Dec-16 23:30N 37°57' E 023°39'0 0.0
2017-Dec-16 23:00N 37°57' E 023°39'0 0.0
2017-Dec-16 22:30N 37°57' E 023°39'0 0.0
2017-Dec-16 22:00N 37°57' E 023°39'0 0.0
2017-Dec-16 21:30N 37°57' E 023°39'0 0.0
2017-Dec-16 21:01N 37°57' E 023°39'0 0.0
2017-Dec-16 20:30N 37°57' E 023°39'0 0.0
2017-Dec-16 20:00N 37°57' E 023°39'0 0.0
2017-Dec-16 19:30N 37°57' E 023°39'0 0.0
2017-Dec-16 19:00N 37°57' E 023°39'0 0.0
2017-Dec-16 18:30N 37°57' E 023°39'0 0.0
2017-Dec-16 18:00N 37°57' E 023°39'0 0.0
2017-Dec-16 17:30N 37°57' E 023°39'0 0.0
2017-Dec-16 17:00N 37°57' E 023°39'0 0.1
2017-Dec-16 16:30N 37°57' E 023°38'510.8
2017-Dec-16 16:00N 37°51' E 023°36'612.1
2017-Dec-16 15:30N 37°48' E 023°31'5 9.8
2017-Dec-16 15:00N 37°45' E 023°25'2 3.3
2017-Dec-16 14:31N 37°46' E 023°25'713.9
2017-Dec-16 14:00N 37°47' E 023°34'510.6
2017-Dec-16 13:30N 37°53' E 023°36'5 9.4
2017-Dec-16 13:00N 37°57' E 023°38'0 0.0
2017-Dec-16 12:30N 37°57' E 023°38'0 0.0
2017-Dec-16 12:00N 37°57' E 023°38'0 0.0
2017-Dec-16 11:30N 37°57' E 023°38'0 0.0
2017-Dec-16 11:00N 37°57' E 023°38'0 0.0
2017-Dec-16 10:30N 37°57' E 023°38'0 0.0
2017-Dec-16 10:00N 37°57' E 023°38'0 0.0
2017-Dec-16 09:30N 37°57' E 023°38'0 0.0
2017-Dec-16 09:00N 37°57' E 023°38'1 2.0
2017-Dec-16 08:30N 37°56' E 023°37'714.2
2017-Dec-16 08:00N 37°50' E 023°32'815.2
2017-Dec-16 07:30N 37°46' E 023°25'1 1.1
2017-Dec-16 07:00N 37°45' E 023°25'714.1
2017-Dec-16 06:30N 37°49' E 023°32'713.7
2017-Dec-16 06:00N 37°55' E 023°36'2 4.8
2017-Dec-16 05:30N 37°57' E 023°38'0 0.0
2017-Dec-16 05:00N 37°57' E 023°38'0 0.0
2017-Dec-16 04:30N 37°57' E 023°38'0 0.0
2017-Dec-16 04:00N 37°57' E 023°38'0 0.0
2017-Dec-16 03:30N 37°57' E 023°38'0 0.0
2017-Dec-16 03:00N 37°57' E 023°38'0 0.0
2017-Dec-16 02:30N 37°57' E 023°38'0 0.0
2017-Dec-16 02:00N 37°57' E 023°38'0 0.0
2017-Dec-16 01:30N 37°57' E 023°38'0 0.0
2017-Dec-16 01:00N 37°57' E 023°38'0 0.0
2017-Dec-16 00:30N 37°57' E 023°38'0 0.0
2017-Dec-16 00:00N 37°57' E 023°38'0 0.0
2017-Dec-15 23:30N 37°57' E 023°38'0 0.0
2017-Dec-15 23:00N 37°57' E 023°38'0 0.0
2017-Dec-15 22:30N 37°57' E 023°38'0 0.0
2017-Dec-15 22:00N 37°57' E 023°38'0 0.0
2017-Dec-15 21:30N 37°57' E 023°38'0 0.0
2017-Dec-15 21:00N 37°57' E 023°38'0 0.0
2017-Dec-15 20:30N 37°57' E 023°38'0 0.0
2017-Dec-15 20:00N 37°57' E 023°38'0 0.0
2017-Dec-15 19:30N 37°57' E 023°38'0 0.0
2017-Dec-15 19:00N 37°57' E 023°38'0 0.2
2017-Dec-15 18:30N 37°57' E 023°38'713.6
2017-Dec-15 18:00N 37°51' E 023°33'815.3
2017-Dec-15 17:30N 37°47' E 023°25'2 3.6
2017-Dec-15 17:00N 37°45' E 023°25'713.9
2017-Dec-15 16:30N 37°50' E 023°31'815.1
2017-Dec-15 16:00N 37°56' E 023°37'2 3.1
2017-Dec-15 15:30N 37°57' E 023°38'713.2
2017-Dec-15 15:00N 37°52' E 023°33'815.2
2017-Dec-15 14:30N 37°47' E 023°26'2 4.1
2017-Dec-15 14:00N 37°45' E 023°26'611.0
2017-Dec-15 13:30N 37°49' E 023°30'715.0
2017-Dec-15 13:00N 37°55' E 023°36'3 5.7
2017-Dec-15 12:30N 37°57' E 023°38'4 8.2
2017-Dec-15 12:00N 37°54' E 023°35'714.9
2017-Dec-15 11:30N 37°48' E 023°28'4 8.6
2017-Dec-15 11:00N 37°45' E 023°26'3 7.0
2017-Dec-15 10:30N 37°42' E 023°22'3 6.9
2017-Dec-15 10:00N 37°45' E 023°25'4 7.6
2017-Dec-15 09:30N 37°48' E 023°28'815.1
2017-Dec-15 09:00N 37°53' E 023°35'5 9.2
2017-Dec-15 08:30N 37°57' E 023°38'4 8.6
2017-Dec-15 08:00N 37°54' E 023°35'815.1
2017-Dec-15 07:30N 37°48' E 023°28'4 7.9
2017-Dec-15 07:00N 37°45' E 023°26'2 4.9
2017-Dec-15 06:30N 37°47' E 023°26'714.5
2017-Dec-15 06:00N 37°52' E 023°33'612.2
2017-Dec-15 05:30N 37°56' E 023°38'0 0.8
2017-Dec-15 05:00N 37°57' E 023°38'0 0.0
2017-Dec-15 04:30N 37°57' E 023°38'0 0.0
2017-Dec-15 04:00N 37°57' E 023°38'0 0.0
2017-Dec-15 02:30N 37°57' E 023°38'0 0.0
2017-Dec-15 01:00N 37°57' E 023°38'0 0.0
2017-Dec-15 00:30N 37°57' E 023°38'0 0.0
2017-Dec-14 18:31N 37°57' E 023°38'0 0.0
2017-Dec-14 18:00N 37°57' E 023°38'0 0.0
2017-Dec-14 17:30N 37°57' E 023°38'0 0.0
2017-Dec-14 17:00N 37°57' E 023°38'0 0.0
2017-Dec-14 16:30N 37°57' E 023°38'0 0.0
2017-Dec-14 16:00N 37°57' E 023°38'0 0.0
2017-Dec-14 15:00N 37°57' E 023°38'0 0.0
2017-Dec-14 14:30N 37°57' E 023°38'0 0.0
2017-Dec-14 14:00N 37°57' E 023°38'0 0.0
2017-Dec-14 13:30N 37°57' E 023°38'0 0.0
2017-Dec-14 13:00N 37°57' E 023°38'0 0.0
2017-Dec-14 12:30N 37°57' E 023°38'0 0.0
2017-Dec-14 12:00N 37°57' E 023°38'0 0.0
2017-Dec-14 11:30N 37°57' E 023°38'0 0.0
2017-Dec-14 11:00N 37°57' E 023°38'0 0.0
2017-Dec-14 10:30N 37°57' E 023°38'0 0.0
2017-Dec-14 10:00N 37°57' E 023°38'0 0.0
2017-Dec-14 09:30N 37°57' E 023°38'0 0.0
2017-Dec-14 09:00N 37°57' E 023°38'0 0.0
2017-Dec-14 08:30N 37°57' E 023°38'0 0.0
2017-Dec-14 08:00N 37°57' E 023°38'0 0.0
2017-Dec-14 07:30N 37°57' E 023°38'0 0.0
2017-Dec-14 07:00N 37°57' E 023°38'0 0.0
2017-Dec-14 06:30N 37°57' E 023°38'0 0.0
2017-Dec-13 16:31N 37°57' E 023°38'111.2
2017-Dec-13 16:29N 37°56' E 023°38'714.6
2017-Dec-13 16:00N 37°51' E 023°32'715.1
2017-Dec-13 15:30N 37°46' E 023°25'2 3.2
2017-Dec-13 15:00N 37°45' E 023°26'3 5.4
2017-Dec-13 14:30N 37°47' E 023°27'714.9
2017-Dec-13 14:00N 37°52' E 023°34'611.6
2017-Dec-13 13:30N 37°57' E 023°38'0 0.3
2017-Dec-13 13:00N 37°57' E 023°38'713.6
2017-Dec-13 12:30N 37°51' E 023°33'815.1
2017-Dec-13 12:00N 37°47' E 023°26'2 3.6
2017-Dec-13 11:30N 37°45' E 023°26'3 6.9
2017-Dec-13 11:00N 37°48' E 023°28'714.8
2017-Dec-13 10:30N 37°53' E 023°34'510.0
2017-Dec-13 10:00N 37°57' E 023°38'0 0.0
2017-Dec-13 09:30N 37°57' E 023°38'0 0.0
2017-Dec-13 09:00N 37°57' E 023°38'0 0.0
2017-Dec-13 08:30N 37°57' E 023°38'4 7.4
2017-Dec-13 08:01N 37°54' E 023°35'815.0
2017-Dec-13 07:30N 37°49' E 023°29'5 9.1
2017-Dec-13 07:00N 37°45' E 023°26'2 4.1
2017-Dec-13 06:30N 37°47' E 023°26'714.8
2017-Dec-13 06:01N 37°51' E 023°33'713.3
2017-Dec-13 05:30N 37°56' E 023°38'0 1.0
2017-Dec-13 05:00N 37°57' E 023°38'0 0.0
2017-Dec-13 04:30N 37°57' E 023°38'0 0.0
2017-Dec-13 04:00N 37°57' E 023°38'0 0.0
2017-Dec-13 03:30N 37°57' E 023°38'0 0.0
2017-Dec-13 03:00N 37°57' E 023°38'0 0.0
2017-Dec-13 02:30N 37°57' E 023°38'0 0.0
2017-Dec-13 02:00N 37°57' E 023°38'0 0.0
2017-Dec-13 01:30N 37°57' E 023°38'0 0.0
2017-Dec-13 01:00N 37°57' E 023°38'0 0.0
2017-Dec-13 00:30N 37°57' E 023°38'0 0.0
2017-Dec-13 00:00N 37°57' E 023°38'0 0.0
2017-Dec-12 23:30N 37°57' E 023°38'0 0.0
2017-Dec-12 23:00N 37°57' E 023°38'0 0.0
2017-Dec-12 22:30N 37°57' E 023°38'0 0.0
2017-Dec-12 22:00N 37°57' E 023°38'0 0.0
2017-Dec-12 21:30N 37°57' E 023°38'0 0.0
2017-Dec-12 21:00N 37°57' E 023°38'0 0.0
2017-Dec-12 20:30N 37°57' E 023°38'0 0.3
2017-Dec-12 20:00N 37°57' E 023°38'2 3.8
2017-Dec-12 19:30N 37°56' E 023°36'714.5
2017-Dec-12 19:00N 37°50' E 023°31'714.1
2017-Dec-12 18:30N 37°45' E 023°25'2 3.6
2017-Dec-12 18:00N 37°43' E 023°25'2 4.4
2017-Dec-12 17:30N 37°42' E 023°22'0 0.0
2017-Dec-12 17:00N 37°42' E 023°22'0 0.0
2017-Dec-12 16:30N 37°42' E 023°22'0 0.0
2017-Dec-12 16:00N 37°42' E 023°22'2 4.2
2017-Dec-12 15:30N 37°43' E 023°25'3 6.0
2017-Dec-12 15:00N 37°46' E 023°25'714.8
2017-Dec-12 14:30N 37°51' E 023°32'713.7
2017-Dec-12 14:00N 37°57' E 023°36'1 1.1
2017-Dec-12 13:30N 37°57' E 023°36'2 3.3
2017-Dec-12 13:00N 37°57' E 023°38'4 8.8
2017-Dec-12 12:30N 37°53' E 023°35'714.9
2017-Dec-12 12:00N 37°48' E 023°28'4 8.0
2017-Dec-12 11:30N 37°45' E 023°26'4 7.4
2017-Dec-12 11:00N 37°48' E 023°28'815.0
2017-Dec-12 10:30N 37°53' E 023°35'5 9.5
2017-Dec-12 10:00N 37°57' E 023°38'0 0.0
2017-Dec-12 09:30N 37°57' E 023°38'0 0.0
2017-Dec-12 09:00N 37°57' E 023°38'0 0.2
2017-Dec-12 08:30N 37°57' E 023°38'612.3
2017-Dec-12 08:00N 37°52' E 023°33'714.9
2017-Dec-12 07:30N 37°47' E 023°26'2 4.8
2017-Dec-12 07:00N 37°45' E 023°26'2 3.3
2017-Dec-12 06:30N 37°46' E 023°25'714.8
2017-Dec-12 06:00N 37°51' E 023°32'713.3
2017-Dec-12 05:30N 37°56' E 023°37'1 2.4
2017-Dec-12 05:00N 37°57' E 023°38'0 0.0
2017-Dec-12 04:30N 37°57' E 023°38'0 0.0
2017-Dec-12 04:00N 37°57' E 023°38'0 0.0
2017-Dec-12 03:30N 37°57' E 023°38'0 0.0
2017-Dec-12 03:00N 37°57' E 023°38'0 0.0
2017-Dec-12 02:30N 37°57' E 023°38'0 0.0
2017-Dec-12 02:00N 37°57' E 023°38'0 0.0
2017-Dec-12 01:30N 37°57' E 023°38'0 0.0
2017-Dec-12 01:00N 37°57' E 023°38'0 0.0
2017-Dec-12 00:30N 37°57' E 023°38'0 0.0
2017-Dec-12 00:00N 37°57' E 023°38'0 0.0
2017-Dec-11 23:30N 37°57' E 023°38'0 0.0
2017-Dec-11 23:00N 37°57' E 023°38'0 0.0
2017-Dec-11 22:30N 37°57' E 023°38'0 0.0
2017-Dec-11 22:00N 37°57' E 023°38'0 0.0
2017-Dec-11 21:30N 37°57' E 023°38'0 0.0
2017-Dec-11 21:00N 37°57' E 023°38'0 0.0
2017-Dec-11 20:30N 37°57' E 023°38'0 0.0
2017-Dec-11 20:00N 37°57' E 023°38'0 0.0
2017-Dec-11 19:30N 37°57' E 023°38'0 0.0
2017-Dec-11 19:00N 37°57' E 023°38'0 0.0
2017-Dec-11 18:30N 37°57' E 023°38'0 0.0
2017-Dec-11 18:00N 37°57' E 023°38'0 0.0
2017-Dec-11 17:30N 37°57' E 023°38'0 0.0
2017-Dec-11 17:00N 37°57' E 023°38'0 0.0
2017-Dec-11 16:30N 37°57' E 023°38'0 0.0
2017-Dec-11 16:00N 37°57' E 023°38'0 0.0
2017-Dec-11 15:30N 37°57' E 023°38'0 0.0
2017-Dec-11 15:00N 37°57' E 023°38'0 0.0
2017-Dec-11 14:30N 37°57' E 023°38'0 0.0
2017-Dec-11 14:00N 37°57' E 023°38'0 0.0
2017-Dec-11 13:30N 37°57' E 023°38'0 0.0
2017-Dec-11 13:00N 37°57' E 023°38'0 0.0
2017-Dec-11 12:30N 37°57' E 023°38'0 0.0
2017-Dec-11 12:00N 37°57' E 023°38'0 0.0
2017-Dec-11 11:30N 37°57' E 023°38'0 0.0
2017-Dec-11 11:00N 37°57' E 023°38'0 0.0
2017-Dec-11 10:30N 37°57' E 023°38'0 0.0
2017-Dec-11 10:00N 37°57' E 023°38'0 0.0
2017-Dec-11 09:30N 37°57' E 023°38'0 0.0
2017-Dec-11 09:00N 37°57' E 023°38'0 0.0
2017-Dec-11 08:30N 37°57' E 023°38'0 0.0
2017-Dec-11 08:00N 37°57' E 023°38'0 0.0
2017-Dec-11 07:30N 37°57' E 023°38'0 0.0
2017-Dec-11 07:00N 37°57' E 023°38'0 0.0
2017-Dec-11 06:30N 37°57' E 023°38'0 0.0
2017-Dec-11 06:00N 37°57' E 023°38'0 0.0
2017-Dec-11 05:30N 37°57' E 023°38'0 0.0
2017-Dec-11 05:00N 37°57' E 023°38'0 0.0
2017-Dec-11 04:30N 37°57' E 023°38'0 0.0
2017-Dec-11 04:00N 37°57' E 023°38'0 0.0
2017-Dec-11 03:30N 37°57' E 023°38'0 0.0
2017-Dec-11 03:00N 37°57' E 023°38'0 0.0
2017-Dec-11 02:30N 37°57' E 023°38'0 0.0
2017-Dec-11 02:00N 37°57' E 023°38'0 0.0
2017-Dec-11 01:30N 37°57' E 023°38'0 0.0
2017-Dec-11 01:00N 37°57' E 023°38'0 0.0
2017-Dec-11 00:30N 37°57' E 023°38'0 0.0
2017-Dec-11 00:00N 37°57' E 023°38'0 0.0
2017-Dec-10 23:30N 37°57' E 023°38'0 0.0
2017-Dec-10 23:00N 37°57' E 023°38'0 0.0
2017-Dec-10 22:30N 37°57' E 023°38'0 0.0
2017-Dec-10 22:00N 37°57' E 023°38'0 0.0
2017-Dec-10 21:30N 37°57' E 023°38'0 0.0
2017-Dec-10 21:00N 37°57' E 023°38'0 0.0
2017-Dec-10 20:30N 37°57' E 023°38'0 0.0
2017-Dec-10 20:00N 37°57' E 023°38'0 0.0
2017-Dec-10 19:30N 37°57' E 023°38'0 0.0
2017-Dec-10 19:00N 37°57' E 023°38'0 0.0
2017-Dec-10 18:30N 37°57' E 023°38'0 0.0
2017-Dec-10 18:00N 37°57' E 023°38'0 0.0
2017-Dec-10 17:30N 37°57' E 023°38'0 0.0
2017-Dec-10 17:00N 37°57' E 023°38'0 0.0
2017-Dec-10 16:30N 37°57' E 023°38'0 0.0
2017-Dec-10 16:00N 37°57' E 023°38'0 0.0
2017-Dec-10 15:30N 37°57' E 023°38'0 0.0
2017-Dec-10 15:00N 37°57' E 023°38'0 0.0
2017-Dec-10 14:30N 37°57' E 023°38'0 0.0
2017-Dec-10 14:00N 37°57' E 023°38'0 0.0
2017-Dec-10 13:30N 37°57' E 023°38'0 0.0
2017-Dec-10 13:00N 37°57' E 023°38'0 0.0
2017-Dec-10 12:30N 37°57' E 023°38'0 0.0
2017-Dec-10 12:00N 37°57' E 023°38'0 0.0
2017-Dec-10 11:30N 37°57' E 023°38'0 0.0
2017-Dec-10 11:00N 37°57' E 023°38'0 0.0
2017-Dec-10 10:30N 37°57' E 023°38'0 0.0
2017-Dec-10 10:00N 37°57' E 023°38'0 0.0
2017-Dec-10 09:30N 37°57' E 023°38'0 0.0
2017-Dec-10 09:00N 37°57' E 023°38'0 0.0
2017-Dec-10 08:30N 37°57' E 023°38'0 0.0
2017-Dec-10 08:00N 37°57' E 023°38'0 0.0
2017-Dec-10 07:30N 37°57' E 023°38'0 0.0
2017-Dec-10 07:00N 37°57' E 023°38'0 0.0
2017-Dec-10 06:30N 37°57' E 023°38'0 0.0
2017-Dec-10 06:00N 37°57' E 023°38'0 0.0
2017-Dec-10 05:30N 37°57' E 023°38'0 0.0
2017-Dec-10 05:00N 37°57' E 023°38'0 0.0
2017-Dec-10 04:30N 37°57' E 023°38'0 0.0
2017-Dec-10 04:00N 37°57' E 023°38'0 0.0
2017-Dec-10 03:30N 37°57' E 023°38'0 0.0
2017-Dec-10 03:00N 37°57' E 023°38'0 0.0
2017-Dec-10 02:30N 37°57' E 023°38'0 0.0
2017-Dec-10 02:00N 37°57' E 023°38'0 0.0
2017-Dec-10 01:30N 37°57' E 023°38'0 0.0
2017-Dec-10 01:00N 37°57' E 023°38'0 0.0
2017-Dec-10 00:30N 37°57' E 023°38'0 0.0
2017-Dec-10 00:00N 37°57' E 023°38'0 0.0
2017-Dec-09 23:30N 37°57' E 023°38'0 0.0
2017-Dec-09 23:00N 37°57' E 023°38'0 0.0
2017-Dec-09 22:30N 37°57' E 023°38'0 0.0
2017-Dec-09 22:00N 37°57' E 023°38'0 0.0
2017-Dec-09 21:30N 37°57' E 023°38'0 0.0
2017-Dec-09 21:00N 37°57' E 023°38'0 0.0
2017-Dec-09 20:30N 37°57' E 023°38'0 0.0
2017-Dec-09 20:00N 37°57' E 023°38'0 0.0
2017-Dec-09 19:30N 37°57' E 023°38'0 0.0
2017-Dec-09 19:00N 37°57' E 023°38'0 0.0
2017-Dec-09 18:30N 37°57' E 023°38'0 0.0
2017-Dec-09 18:00N 37°57' E 023°38'0 0.0
2017-Dec-09 17:30N 37°57' E 023°38'0 0.0
2017-Dec-09 17:00N 37°57' E 023°38'0 0.0
2017-Dec-09 16:30N 37°57' E 023°38'0 0.0
2017-Dec-09 16:00N 37°57' E 023°38'0 0.0
2017-Dec-09 15:30N 37°57' E 023°38'0 0.0
2017-Dec-09 15:00N 37°57' E 023°38'0 0.0
2017-Dec-09 14:30N 37°57' E 023°38'0 0.0
2017-Dec-09 14:00N 37°57' E 023°38'0 0.0
2017-Dec-09 13:30N 37°57' E 023°38'0 0.0
2017-Dec-09 13:00N 37°57' E 023°38'0 0.0
2017-Dec-09 12:30N 37°57' E 023°38'0 0.0
2017-Dec-09 12:00N 37°57' E 023°38'0 0.0
2017-Dec-09 11:30N 37°57' E 023°38'0 0.0
2017-Dec-09 11:00N 37°57' E 023°38'0 0.0
2017-Dec-09 10:30N 37°57' E 023°38'0 0.0
2017-Dec-09 10:00N 37°57' E 023°38'0 0.0
2017-Dec-09 09:30N 37°57' E 023°38'0 0.0
2017-Dec-09 09:00N 37°57' E 023°38'0 0.0
2017-Dec-09 08:30N 37°57' E 023°38'0 0.0
2017-Dec-09 08:00N 37°57' E 023°38'0 0.0
2017-Dec-09 07:30N 37°57' E 023°38'0 0.0
2017-Dec-09 07:00N 37°57' E 023°38'0 0.0
2017-Dec-09 06:30N 37°57' E 023°38'0 0.0
2017-Dec-09 06:00N 37°57' E 023°38'0 0.0
2017-Dec-09 05:30N 37°57' E 023°38'0 0.0
2017-Dec-09 05:00N 37°57' E 023°38'0 0.0
2017-Dec-09 04:30N 37°57' E 023°38'0 0.0
2017-Dec-09 04:00N 37°57' E 023°38'0 0.0
2017-Dec-09 03:30N 37°57' E 023°38'0 0.0
2017-Dec-09 03:00N 37°57' E 023°38'0 0.0
2017-Dec-09 02:30N 37°57' E 023°38'0 0.0
2017-Dec-09 02:00N 37°57' E 023°38'0 0.0
2017-Dec-09 01:30N 37°57' E 023°38'0 0.0
2017-Dec-09 01:00N 37°57' E 023°38'0 0.0
2017-Dec-09 00:30N 37°57' E 023°38'0 0.0
2017-Dec-09 00:00N 37°57' E 023°38'0 0.0
2017-Dec-08 23:30N 37°57' E 023°38'0 0.0
2017-Dec-08 23:00N 37°57' E 023°38'0 0.0
2017-Dec-08 22:30N 37°57' E 023°38'0 0.0
2017-Dec-08 22:00N 37°57' E 023°38'0 0.0
2017-Dec-08 21:30N 37°57' E 023°38'0 0.0
2017-Dec-08 21:00N 37°57' E 023°38'0 0.0
2017-Dec-08 20:30N 37°57' E 023°38'0 0.0
2017-Dec-08 20:00N 37°57' E 023°38'0 0.0
2017-Dec-08 19:30N 37°57' E 023°38'0 0.0
2017-Dec-08 19:00N 37°57' E 023°38'0 0.0
2017-Dec-08 18:30N 37°57' E 023°38'0 0.0
2017-Dec-08 18:00N 37°57' E 023°38'0 0.0
2017-Dec-08 17:30N 37°57' E 023°38'0 0.0
2017-Dec-08 17:00N 37°57' E 023°38'0 0.0
2017-Dec-08 16:30N 37°57' E 023°38'0 0.0
2017-Dec-08 16:00N 37°57' E 023°38'0 0.0
2017-Dec-08 15:30N 37°57' E 023°38'0 0.0
2017-Dec-08 15:00N 37°57' E 023°38'0 0.0
2017-Dec-08 14:30N 37°57' E 023°38'0 0.0
2017-Dec-08 14:00N 37°57' E 023°38'0 0.0
2017-Dec-08 13:30N 37°57' E 023°38'0 0.0
2017-Dec-08 13:00N 37°57' E 023°38'0 0.0
2017-Dec-08 12:30N 37°57' E 023°38'0 0.0
2017-Dec-08 12:00N 37°57' E 023°38'0 0.0
2017-Dec-08 11:30N 37°57' E 023°38'0 0.0
2017-Dec-08 11:00N 37°57' E 023°38'  

Dump ship's entire track history